Time;durP1;ratioP1;P1;durP2;ratioP2;P2;SDS_P1;SDS_P2;PMS_P1;PMS_P2;Temp;Humidity;BMP_temperature;BMP_pressure;BME280_temperature;BME280_humidity;BME280_pressure;Samples;Min_cycle;Max_cycle;Signal;HPM_P1;HPM_P2
2022/11/20 00:02:19;;;;;;;3.33;1.67;;;;;;;19.00;69.76;93900.69;4994017;28;20220;-83
2022/11/20 00:04:46;;;;;;;3.87;1.87;;;;;;;18.99;69.25;93880.94;4994834;28;20193;-83
2022/11/20 00:07:13;;;;;;;3.87;1.87;;;;;;;19.05;69.35;93861.97;4993634;28;20628;-81
2022/11/20 00:09:39;;;;;;;2.27;1.80;;;;;;;19.09;69.07;93884.88;4993941;28;20197;-82
2022/11/20 00:12:06;;;;;;;1.50;1.40;;;;;;;19.11;69.11;93872.50;4993972;28;20189;-80
2022/11/20 00:14:33;;;;;;;4.20;1.83;;;;;;;19.12;69.11;93861.91;4993943;28;20189;-84
2022/11/20 00:17:00;;;;;;;2.87;1.70;;;;;;;19.16;69.04;93903.75;4993784;28;20284;-83
2022/11/20 00:19:28;;;;;;;4.80;2.10;;;;;;;19.14;68.99;93836.59;4994019;28;20189;-83
2022/11/20 00:21:55;;;;;;;3.73;1.70;;;;;;;19.19;68.89;93861.88;4993663;28;20189;-81
2022/11/20 00:24:22;;;;;;;3.93;1.70;;;;;;;19.20;68.86;93874.63;4993604;28;20193;-81
2022/11/20 00:26:49;;;;;;;1.50;1.40;;;;;;;19.01;68.56;93834.91;4993254;28;20185;-82
2022/11/20 00:29:15;;;;;;;2.13;1.73;;;;;;;19.23;68.61;93850.09;4993804;28;20284;-83
2022/11/20 00:31:42;;;;;;;1.67;1.57;;;;;;;19.24;68.38;93849.88;4993440;28;20683;-79
2022/11/20 00:34:10;;;;;;;1.90;1.50;;;;;;;19.21;68.28;93855.50;4993223;28;20190;-81
2022/11/20 00:36:38;;;;;;;3.70;1.87;;;;;;;19.28;68.14;93868.38;4993431;28;20186;-81
2022/11/20 00:39:05;;;;;;;1.90;1.70;;;;;;;19.29;68.02;93854.41;4993188;28;20664;-80
2022/11/20 00:41:32;;;;;;;2.83;1.40;;;;;;;19.17;67.84;93863.88;4993291;28;20200;-82
2022/11/20 00:43:59;;;;;;;1.80;1.60;;;;;;;19.21;68.10;93862.44;4992727;28;20232;-80
2022/11/20 00:46:27;;;;;;;1.60;1.50;;;;;;;19.18;67.91;93842.16;4993066;28;20193;-80
2022/11/20 00:48:54;;;;;;;2.27;1.53;;;;;;;19.18;67.98;93865.47;4993352;28;20209;-81
2022/11/20 00:51:23;;;;;;;2.80;1.77;;;;;;;19.35;67.88;93851.00;4993332;28;20204;-83
2022/11/20 00:53:52;;;;;;;3.27;1.63;;;;;;;19.35;67.57;93887.28;4993092;28;20193;-80
2022/11/20 00:56:20;;;;;;;1.97;1.50;;;;;;;19.38;67.54;93865.31;4994209;28;20272;-80
2022/11/20 00:58:49;;;;;;;3.17;1.87;;;;;;;19.26;67.39;93878.97;4998220;28;20193;-80
2022/11/20 01:01:18;;;;;;;1.90;1.60;;;;;;;19.38;67.15;93875.69;4995475;28;20627;-84
2022/11/20 01:03:47;;;;;;;1.73;1.47;;;;;;;19.40;67.27;93895.22;4987453;28;20290;-81
2022/11/20 01:06:17;;;;;;;1.87;1.40;;;;;;;19.33;67.47;93860.75;5008481;28;20579;-79
2022/11/20 01:08:45;;;;;;;1.70;1.60;;;;;;;19.43;67.24;93855.91;4996817;28;20661;-80
2022/11/20 01:11:15;;;;;;;3.23;1.90;;;;;;;19.43;67.38;93884.44;4997649;28;20189;-83
2022/11/20 01:13:42;;;;;;;2.57;1.80;;;;;;;19.42;67.21;93882.81;5004549;28;20192;-81
2022/11/20 01:16:12;;;;;;;2.83;1.43;;;;;;;19.42;67.37;93888.00;5001669;28;20200;-80
2022/11/20 01:18:41;;;;;;;1.97;1.20;;;;;;;19.42;67.58;93840.56;4993873;28;20576;-79
2022/11/20 01:21:10;;;;;;;3.53;1.50;;;;;;;19.40;67.47;93900.41;4993587;28;20200;-81
2022/11/20 01:23:38;;;;;;;2.40;1.57;;;;;;;19.41;67.39;93834.56;4993334;28;20232;-80
2022/11/20 01:26:08;;;;;;;4.03;1.63;;;;;;;19.35;67.52;93850.19;4993870;28;20200;-82
2022/11/20 01:28:37;;;;;;;1.90;1.50;;;;;;;19.41;67.43;93844.16;4992918;28;20201;-82
2022/11/20 01:31:12;;;;;;;3.23;1.40;;;;;;;19.30;67.29;93827.50;4993242;28;20230;-81
2022/11/20 01:33:43;;;;;;;4.10;1.90;;;;;;;19.29;66.98;93800.75;4993877;28;20231;-84
2022/11/20 01:36:11;;;;;;;2.53;1.80;;;;;;;19.27;66.95;93827.91;4993567;28;20197;-83
2022/11/20 01:38:39;;;;;;;1.93;1.53;;;;;;;19.34;66.89;93805.31;4992239;28;20604;-80
2022/11/20 01:41:07;;;;;;;4.00;1.50;;;;;;;19.44;66.72;93802.25;4992280;28;20611;-79
2022/11/20 01:43:33;;;;;;;1.57;1.47;;;;;;;19.43;66.80;93819.63;4992463;28;20236;-81
2022/11/20 01:46:14;;;;;;;1.67;1.40;;;;;;;19.34;66.92;93835.63;4993714;28;20185;-80
2022/11/20 01:48:46;;;;;;;3.57;1.53;;;;;;;19.40;66.60;93833.00;4992472;28;20683;-81
2022/11/20 01:51:22;;;;;;;2.17;1.73;;;;;;;19.45;66.53;93832.34;4992551;28;20284;-80
2022/11/20 01:53:50;;;;;;;5.40;1.70;;;;;;;19.44;66.60;93831.56;4992160;28;20224;-80
2022/11/20 01:56:17;;;;;;;3.57;1.73;;;;;;;19.38;66.68;93837.59;4992386;28;20199;-80
2022/11/20 01:58:49;;;;;;;1.47;1.37;;;;;;;19.20;66.92;93804.63;4992931;28;20200;-79
2022/11/20 02:01:18;;;;;;;1.40;1.30;;;;;;;19.44;66.47;93836.75;4994595;28;20234;-80
2022/11/20 02:03:45;;;;;;;5.90;1.80;;;;;;;19.39;66.81;93851.38;4995521;28;20592;-80
2022/11/20 02:06:17;;;;;;;2.77;1.53;;;;;;;19.43;66.79;93861.09;4994821;28;20256;-80
2022/11/20 02:08:44;;;;;;;1.53;1.43;;;;;;;19.43;66.68;93836.94;4996492;28;20208;-79
2022/11/20 02:11:12;;;;;;;3.53;1.60;;;;;;;19.39;66.64;93859.94;4994917;28;20193;-79
2022/11/20 02:13:44;;;;;;;2.23;2.03;;;;;;;19.42;66.60;93872.47;4994466;28;20201;-79
2022/11/20 02:16:19;;;;;;;4.83;1.97;;;;;;;19.41;66.69;93844.16;4994342;28;20200;-80
2022/11/20 02:18:48;;;;;;;4.17;1.67;;;;;;;19.40;66.84;93860.72;4999011;28;20222;-80
2022/11/20 02:21:28;;;;;;;2.40;1.60;;;;;;;19.36;66.65;93854.38;5000143;28;20195;-82
2022/11/20 02:24:09;;;;;;;2.90;1.53;;;;;;;19.37;66.85;93864.53;5001306;28;20228;-83
2022/11/20 02:26:44;;;;;;;1.70;1.37;;;;;;;19.34;66.96;93851.97;4998747;28;20720;-81
2022/11/20 02:29:11;;;;;;;3.30;1.57;;;;;;;19.36;66.80;93849.97;4995236;28;20181;-81
2022/11/20 02:31:42;;;;;;;1.60;1.50;;;;;;;19.35;66.97;93837.25;4995578;28;20244;-79
2022/11/20 02:34:09;;;;;;;1.73;1.63;;;;;;;19.35;66.78;93856.19;4995108;28;20676;-81
2022/11/20 02:36:39;;;;;;;1.40;1.30;;;;;;;19.36;66.70;93875.13;4993916;28;20196;-81
2022/11/20 02:39:08;;;;;;;1.93;1.53;;;;;;;19.35;66.75;93868.34;4994694;28;20186;-83
2022/11/20 02:41:36;;;;;;;4.20;1.50;;;;;;;19.26;66.76;93873.00;4993535;28;20189;-80
2022/11/20 02:44:05;;;;;;;2.07;1.60;;;;;;;19.34;66.68;93869.34;4993923;28;20241;-83
2022/11/20 02:46:32;;;;;;;3.20;1.60;;;;;;;19.33;66.40;93881.50;4994941;28;20200;-81
2022/11/20 02:48:59;;;;;;;3.43;1.60;;;;;;;19.25;66.72;93882.56;4992311;28;20194;-79
2022/11/20 02:51:26;;;;;;;2.60;1.50;;;;;;;19.24;66.64;93864.63;4992466;28;20205;-81
2022/11/20 02:53:53;;;;;;;1.37;1.30;;;;;;;19.33;66.63;93870.34;4991376;28;20301;-81
2022/11/20 02:56:21;;;;;;;4.33;2.00;;;;;;;19.33;66.41;93884.09;4997472;28;20189;-81
2022/11/20 02:58:48;;;;;;;2.73;1.67;;;;;;;19.25;66.46;93877.38;5007406;28;20197;-81
2022/11/20 03:01:15;;;;;;;2.90;1.50;;;;;;;19.33;66.55;93881.50;4996931;28;20208;-80
2022/11/20 03:03:42;;;;;;;2.37;1.50;;;;;;;19.32;66.59;93877.34;4993786;28;20238;-79
2022/11/20 03:06:09;;;;;;;3.27;1.80;;;;;;;19.32;66.69;93913.63;4992153;28;20279;-80
2022/11/20 03:08:36;;;;;;;3.33;1.70;;;;;;;19.32;66.78;93910.25;4991932;28;20196;-79
2022/11/20 03:11:05;;;;;;;1.70;1.50;;;;;;;19.32;66.83;93892.09;4992734;28;20200;-80
2022/11/20 03:13:33;;;;;;;1.97;1.80;;;;;;;19.15;66.85;93855.53;4990035;28;20277;-81
2022/11/20 03:16:06;;;;;;;2.67;1.50;;;;;;;19.30;66.82;93889.72;4993576;28;20204;-81
2022/11/20 03:18:33;;;;;;;4.37;2.23;;;;;;;19.29;67.02;93877.75;4993909;28;20197;-83
2022/11/20 03:21:00;;;;;;;1.60;1.50;;;;;;;19.20;66.77;93894.56;4993126;28;20190;-83
2022/11/20 03:23:29;;;;;;;5.10;1.77;;;;;;;19.28;67.06;93891.72;4993908;28;20263;-82
2022/11/20 03:25:56;;;;;;;4.40;1.70;;;;;;;19.21;67.02;93875.41;4996094;28;20177;-82
2022/11/20 03:28:23;;;;;;;1.93;1.63;;;;;;;19.20;66.98;93861.66;4995823;28;20208;-81
2022/11/20 03:30:51;;;;;;;3.13;1.80;;;;;;;19.18;67.00;93866.28;4995152;28;20200;-81
2022/11/20 03:33:18;;;;;;;6.60;1.60;;;;;;;19.27;66.95;93884.94;5000821;28;20189;-84
2022/11/20 03:35:47;;;;;;;2.20;1.67;;;;;;;19.27;66.96;93874.59;5001376;28;20256;-80
2022/11/20 03:38:13;;;;;;;4.93;1.80;;;;;;;19.27;67.00;93887.53;5007824;28;20193;-82
2022/11/20 03:40:40;;;;;;;4.70;1.80;;;;;;;19.26;66.76;93917.88;5009277;28;20215;-83
2022/11/20 03:43:07;;;;;;;1.47;1.40;;;;;;;19.22;66.94;93923.69;5014859;28;20225;-82
2022/11/20 03:45:34;;;;;;;2.03;1.77;;;;;;;19.27;67.11;93916.06;5015007;28;20170;-85
2022/11/20 03:48:04;;;;;;;1.30;1.30;;;;;;;19.16;66.78;93924.50;4993248;28;20660;-85
2022/11/20 03:50:30;;;;;;;4.43;2.10;;;;;;;19.27;66.78;93950.56;4993855;28;20185;-84
2022/11/20 03:52:57;;;;;;;2.60;1.77;;;;;;;19.24;66.80;93916.47;4994016;28;20656;-86
2022/11/20 03:55:26;;;;;;;3.43;1.70;;;;;;;18.98;66.48;93879.34;4996103;28;20220;-84
2022/11/20 03:57:53;;;;;;;4.43;1.73;;;;;;;19.24;66.68;93917.25;5006344;28;20193;-87
2022/11/20 04:00:20;;;;;;;2.13;1.60;;;;;;;19.11;66.86;93894.03;5008760;28;20185;-87
2022/11/20 04:02:46;;;;;;;2.03;1.67;;;;;;;19.15;66.61;93928.09;5006162;28;20588;-85
2022/11/20 04:05:15;;;;;;;2.57;1.60;;;;;;;19.27;66.92;93939.41;4996253;28;20209;-85
2022/11/20 04:07:42;;;;;;;3.27;1.80;;;;;;;18.93;66.68;93893.94;5001578;28;20211;-85
2022/11/20 04:10:09;;;;;;;2.23;1.60;;;;;;;19.29;66.69;93924.41;5000481;28;20193;-84
2022/11/20 04:12:48;;;;;;;2.10;1.50;;;;;;;19.28;66.49;93928.81;5009994;28;20573;-85
2022/11/20 04:15:15;;;;;;;3.70;1.77;;;;;;;19.29;66.43;93930.38;5012443;28;20211;-85
2022/11/20 04:17:42;;;;;;;3.23;1.73;;;;;;;19.28;66.60;93931.41;5011140;28;20205;-87
2022/11/20 04:20:09;;;;;;;3.13;1.60;;;;;;;19.29;66.58;93945.16;5011954;28;20201;-83
2022/11/20 04:22:40;;;;;;;1.50;1.40;;;;;;;19.28;66.51;93930.59;4995745;28;20181;-83
2022/11/20 04:25:09;;;;;;;2.20;1.60;;;;;;;19.29;66.42;93921.81;5007574;28;21339;-85
2022/11/20 04:27:44;;;;;;;4.27;1.80;;;;;;;19.18;66.58;93918.13;4995791;28;20198;-85
2022/11/20 04:30:12;;;;;;;3.17;1.60;;;;;;;19.28;66.42;93946.94;4988080;28;20724;-83
2022/11/20 04:32:38;;;;;;;2.00;1.50;;;;;;;19.29;66.42;93942.56;5002186;28;20200;-83
2022/11/20 04:35:07;;;;;;;3.97;1.57;;;;;;;19.28;66.43;93944.34;4996259;28;20189;-84
2022/11/20 04:37:34;;;;;;;2.83;1.43;;;;;;;19.29;66.29;93950.34;4994390;28;20189;-84
2022/11/20 04:40:03;;;;;;;3.30;1.80;;;;;;;19.09;66.46;93921.19;4994003;28;20178;-82
2022/11/20 04:42:29;;;;;;;1.77;1.57;;;;;;;19.28;66.42;93936.59;4994100;28;20199;-83
2022/11/20 04:44:59;;;;;;;5.27;1.90;;;;;;;19.27;66.27;93922.03;4984886;28;20267;-84
2022/11/20 04:47:26;;;;;;;2.60;1.60;;;;;;;19.19;66.32;93911.13;4993637;28;20201;-85
2022/11/20 04:49:53;;;;;;;1.70;1.60;;;;;;;19.24;66.45;93922.44;4991684;28;20205;-86
2022/11/20 04:52:20;;;;;;;1.67;1.50;;;;;;;19.26;66.46;93927.44;4995096;28;20883;-83
2022/11/20 04:54:47;;;;;;;1.40;1.30;;;;;;;19.14;66.53;93898.81;4995649;28;20280;-84
2022/11/20 04:57:16;;;;;;;1.70;1.43;;;;;;;19.03;66.53;93879.50;4992878;28;20196;-83
2022/11/20 04:59:43;;;;;;;4.23;1.47;;;;;;;19.24;66.58;93913.88;4991235;28;20580;-82
2022/11/20 05:02:10;;;;;;;3.17;1.40;;;;;;;18.99;66.41;93849.06;4990204;28;20691;-80
2022/11/20 05:04:37;;;;;;;3.40;1.70;;;;;;;19.20;66.74;93881.59;4992281;28;20220;-80
2022/11/20 05:07:04;;;;;;;3.40;1.40;;;;;;;19.23;66.54;93897.53;4993278;28;20263;-84
2022/11/20 05:09:32;;;;;;;2.63;1.43;;;;;;;18.98;66.69;93855.25;4993608;28;20587;-84
2022/11/20 05:11:59;;;;;;;1.50;1.40;;;;;;;19.23;66.56;93894.94;4995873;28;20191;-83
2022/11/20 05:14:34;;;;;;;4.63;1.63;;;;;;;19.22;66.65;93870.03;4995207;28;20199;-84
2022/11/20 05:17:01;;;;;;;1.60;1.50;;;;;;;19.19;66.59;93872.25;4994197;28;20239;-84
2022/11/20 05:19:30;;;;;;;1.47;1.30;;;;;;;19.22;66.41;93883.00;4996051;28;20326;-83
2022/11/20 05:21:57;;;;;;;1.47;1.37;;;;;;;19.21;66.43;93881.41;4995819;28;20194;-84
2022/11/20 05:24:24;;;;;;;2.70;1.43;;;;;;;19.10;66.47;93863.94;4994244;28;20224;-83
2022/11/20 05:26:51;;;;;;;3.07;1.80;;;;;;;18.83;66.29;93821.88;4992770;28;20223;-83
2022/11/20 05:29:20;;;;;;;2.00;1.63;;;;;;;19.10;66.44;93840.63;4991927;28;20185;-82
2022/11/20 05:31:48;;;;;;;1.67;1.30;;;;;;;19.14;66.35;93859.91;4992234;28;20197;-82
2022/11/20 05:34:15;;;;;;;2.47;1.70;;;;;;;19.23;66.50;93894.16;4993171;28;20197;-83
2022/11/20 05:36:42;;;;;;;1.57;1.33;;;;;;;19.11;66.20;93870.69;4993009;28;20201;-82
2022/11/20 05:39:12;;;;;;;3.27;1.33;;;;;;;18.99;66.32;93867.97;4992434;28;20195;-82
2022/11/20 05:41:39;;;;;;;2.23;1.80;;;;;;;18.88;66.31;93826.44;4992707;28;20200;-84
2022/11/20 05:44:06;;;;;;;4.43;1.70;;;;;;;19.25;66.23;93874.78;4993277;28;20233;-83
2022/11/20 05:46:33;;;;;;;2.07;1.53;;;;;;;19.21;66.23;93889.19;4993112;28;20192;-84
2022/11/20 05:49:02;;;;;;;3.13;1.60;;;;;;;19.25;66.18;93899.91;4992299;28;20280;-82
2022/11/20 05:51:29;;;;;;;2.13;1.73;;;;;;;19.11;66.19;93885.47;4992046;28;20185;-82
2022/11/20 05:53:57;;;;;;;2.40;1.50;;;;;;;19.27;66.04;93895.31;4992799;28;20378;-84
2022/11/20 05:56:24;;;;;;;2.33;1.30;;;;;;;18.91;66.16;93854.47;4992825;28;20185;-82
2022/11/20 05:58:51;;;;;;;2.90;1.57;;;;;;;19.28;66.20;93915.84;4992498;28;20208;-83
2022/11/20 06:01:21;;;;;;;1.43;1.30;;;;;;;19.29;65.96;93925.19;4993986;28;20656;-83
2022/11/20 06:03:50;;;;;;;4.87;1.37;;;;;;;19.21;66.19;93920.28;4991948;28;20653;-84
2022/11/20 06:06:21;;;;;;;2.00;1.70;;;;;;;19.32;65.95;93939.56;4992433;28;20185;-84
2022/11/20 06:08:48;;;;;;;1.63;1.53;;;;;;;19.33;66.18;93948.13;4991939;28;20188;-82
2022/11/20 06:11:16;;;;;;;3.27;1.50;;;;;;;19.35;66.16;93953.91;4992673;28;20618;-84
2022/11/20 06:13:44;;;;;;;3.50;1.53;;;;;;;19.35;66.25;93931.38;4991702;28;20199;-84
2022/11/20 06:16:11;;;;;;;1.60;1.50;;;;;;;19.36;66.20;93945.91;4991896;28;20232;-84
2022/11/20 06:18:41;;;;;;;2.10;1.40;;;;;;;19.26;66.33;93930.81;4993380;28;20208;-85
2022/11/20 06:21:09;;;;;;;3.10;1.60;;;;;;;19.39;66.04;93953.28;4992056;28;20201;-85
2022/11/20 06:23:38;;;;;;;2.73;1.80;;;;;;;19.40;66.04;93947.09;4992650;28;20260;-84
2022/11/20 06:26:09;;;;;;;2.80;1.50;;;;;;;19.41;65.97;93953.84;4992560;28;20220;-83
2022/11/20 06:28:36;;;;;;;2.00;1.43;;;;;;;19.47;65.96;93976.38;4992177;28;20197;-82
2022/11/20 06:31:04;;;;;;;3.27;1.90;;;;;;;19.50;66.10;93968.16;4992108;28;20182;-83
2022/11/20 06:33:31;;;;;;;3.63;1.50;;;;;;;19.53;65.98;93964.34;4990999;28;20668;-83
2022/11/20 06:36:01;;;;;;;1.63;1.40;;;;;;;19.52;66.23;93934.25;4991658;28;20640;-85
2022/11/20 06:38:38;;;;;;;6.03;1.73;;;;;;;19.73;66.32;93933.09;4991635;28;20604;-83
2022/11/20 06:41:12;;;;;;;2.33;1.37;;;;;;;20.00;66.57;93950.03;4991805;28;20196;-83
2022/11/20 06:43:39;;;;;;;1.97;1.57;;;;;;;20.37;67.06;93942.25;4990838;28;20231;-81
2022/11/20 06:46:10;;;;;;;2.87;1.50;;;;;;;20.62;67.48;93929.22;4992188;28;20213;-85
2022/11/20 06:48:37;;;;;;;1.95;1.58;;;;;;;21.15;67.55;93922.53;4998687;28;20200;-83
2022/11/20 06:51:04;;;;;;;3.67;1.88;;;;;;;21.84;67.15;93952.34;4993514;28;20189;-83
2022/11/20 06:53:37;;;;;;;1.73;1.20;;;;;;;22.33;66.61;93923.50;4994238;28;20185;-82
2022/11/20 06:56:07;;;;;;;2.33;1.52;;;;;;;23.14;66.04;93961.59;4993691;28;20231;-83
2022/11/20 06:58:35;;;;;;;4.55;1.40;;;;;;;23.67;65.72;93950.03;4994237;28;20196;-84
2022/11/20 07:01:03;;;;;;;2.30;1.35;;;;;;;24.34;64.14;93959.63;4995426;28;20208;-83
2022/11/20 07:03:30;;;;;;;1.83;1.50;;;;;;;24.91;63.69;93971.59;4994399;28;20189;-84
2022/11/20 07:05:59;;;;;;;1.45;1.30;;;;;;;25.43;62.40;93973.75;4995366;28;20216;-84
2022/11/20 07:08:26;;;;;;;5.93;1.38;;;;;;;25.83;61.71;93986.47;4995244;28;20613;-84
2022/11/20 07:10:58;;;;;;;2.75;1.20;;;;;;;26.05;60.36;93968.03;4995343;28;20192;-83
2022/11/20 07:13:26;;;;;;;3.63;1.60;;;;;;;26.11;59.66;93964.41;4995084;28;20200;-84
2022/11/20 07:15:53;;;;;;;1.77;1.42;;;;;;;26.09;59.55;93970.94;4994072;28;20193;-84
2022/11/20 07:18:20;;;;;;;3.03;1.30;;;;;;;26.01;58.84;93967.75;4995387;28;20193;-83
2022/11/20 07:20:47;;;;;;;2.42;1.45;;;;;;;25.77;58.26;93954.19;4994921;28;20555;-84
2022/11/20 07:23:14;;;;;;;2.65;1.10;;;;;;;25.58;58.06;93946.94;4994862;28;20228;-83
2022/11/20 07:25:41;;;;;;;1.75;1.42;;;;;;;25.55;58.01;93978.84;4994725;28;20209;-84
2022/11/20 07:28:11;;;;;;;2.53;1.48;;;;;;;25.35;58.11;93977.63;4995268;28;20299;-83
2022/11/20 07:30:39;;;;;;;1.38;1.27;;;;;;;25.16;57.81;93976.38;4995068;28;20248;-83
2022/11/20 07:33:06;;;;;;;2.22;1.55;;;;;;;24.73;57.89;93949.97;4991532;28;20182;-85
2022/11/20 07:35:36;;;;;;;2.22;1.77;;;;;;;24.66;57.89;93956.44;4975230;28;20182;-83
2022/11/20 07:38:19;;;;;;;3.60;1.50;;;;;;;24.48;58.02;93968.75;4975799;28;20190;-83
2022/11/20 07:40:47;;;;;;;2.25;1.30;;;;;;;24.25;58.27;93956.63;4975155;28;20188;-85
2022/11/20 07:43:16;;;;;;;3.22;1.50;;;;;;;24.19;57.90;93990.78;4975920;28;20230;-85
2022/11/20 07:45:47;;;;;;;3.78;1.60;;;;;;;24.00;57.82;93953.66;4975274;28;20704;-85
2022/11/20 07:48:15;;;;;;;1.63;1.38;;;;;;;23.72;57.99;93965.78;4975555;28;20193;-83
2022/11/20 07:50:42;;;;;;;3.42;1.70;;;;;;;23.69;58.16;93981.91;4992141;28;20185;-84
2022/11/20 07:53:09;;;;;;;2.10;1.60;;;;;;;23.55;57.90;93983.22;4994824;28;20208;-84
2022/11/20 07:55:36;;;;;;;2.00;1.52;;;;;;;23.42;57.64;93976.47;4995860;28;20200;-85
2022/11/20 07:58:03;;;;;;;4.43;1.70;;;;;;;23.29;58.03;93998.41;4997007;28;20743;-85
2022/11/20 08:00:30;;;;;;;4.35;1.60;;;;;;;23.12;58.04;94002.78;4996320;28;20670;-85
2022/11/20 08:02:58;;;;;;;2.35;1.70;;;;;;;23.07;58.09;94004.53;4963102;28;20276;-85
2022/11/20 08:05:25;;;;;;;5.57;1.73;;;;;;;22.95;57.89;94004.53;4997511;28;20225;-89
2022/11/20 08:07:52;;;;;;;3.00;1.80;;;;;;;22.72;58.00;93985.31;4996218;28;20801;-87
2022/11/20 08:10:20;;;;;;;5.53;1.95;;;;;;;22.65;58.52;93992.44;4995994;28;20185;-88
2022/11/20 08:15:33;;;;;;;3.88;1.73;;;;;;;22.36;58.34;93923.03;4996067;28;20196;-86
2022/11/20 08:18:04;;;;;;;2.00;1.88;;;;;;;22.31;58.08;93939.34;4998494;28;20225;-84
2022/11/20 08:20:34;;;;;;;9.35;1.85;;;;;;;22.34;69.37;93938.91;5004458;28;20579;-82
2022/11/20 08:23:01;;;;;;;8.20;2.40;;;;;;;22.79;73.87;94019.84;5008998;28;20589;-85
2022/11/20 08:25:29;;;;;;;10.50;2.50;;;;;;;22.94;74.43;94002.97;5000908;28;20595;-81
2022/11/20 08:27:58;;;;;;;7.05;2.10;;;;;;;23.06;74.11;94003.72;5005996;28;20180;-82
2022/11/20 08:30:26;;;;;;;12.98;2.92;;;;;;;23.19;74.29;94024.31;5001574;28;20193;-86
2022/11/20 08:33:01;;;;;;;12.23;2.90;;;;;;;23.33;74.19;94030.06;5008899;28;20283;-82
2022/11/20 08:35:35;;;;;;;18.08;3.65;;;;;;;23.34;73.97;93986.50;5010395;28;20267;-83
2022/11/20 08:38:02;;;;;;;13.63;2.45;;;;;;;23.53;73.91;94009.56;5004004;28;20196;-84
2022/11/20 08:40:31;;;;;;;20.60;3.28;;;;;;;23.60;73.15;94001.56;5005664;28;20185;-84
2022/11/20 08:42:59;;;;;;;22.30;2.85;;;;;;;23.61;72.35;94010.97;5002565;28;20224;-85
2022/11/20 08:45:28;;;;;;;8.65;2.53;;;;;;;23.71;71.90;94050.34;5001567;28;20217;-83
2022/11/20 08:48:00;;;;;;;11.57;2.75;;;;;;;23.74;71.56;94075.97;4993504;28;20276;-83
2022/11/20 08:50:31;;;;;;;14.50;2.45;;;;;;;23.76;71.11;94036.59;4992001;28;20192;-84
2022/11/20 08:53:04;;;;;;;7.22;2.20;;;;;;;23.76;71.00;94039.22;4992083;28;20201;-87
2022/11/20 08:55:31;;;;;;;16.92;3.17;;;;;;;23.72;70.64;94019.81;4991795;28;20196;-85
2022/11/20 08:58:00;;;;;;;10.30;2.42;;;;;;;23.71;70.27;94002.56;4994197;28;20207;-83
2022/11/20 09:00:27;;;;;;;6.80;2.47;;;;;;;23.73;70.19;93993.47;4990190;28;20636;-84
2022/11/20 09:02:54;;;;;;;12.70;2.00;;;;;;;23.84;69.78;94027.59;5001128;28;20196;-83
2022/11/20 09:05:22;;;;;;;8.20;2.45;;;;;;;23.69;69.15;94002.78;4992193;28;20212;-87
2022/11/20 09:07:58;;;;;;;7.78;1.98;;;;;;;23.86;69.29;94015.88;5002322;28;20208;-83
2022/11/20 09:10:27;;;;;;;7.10;2.50;;;;;;;23.78;68.59;94022.25;5011023;28;20220;-84
2022/11/20 09:12:55;;;;;;;6.13;2.00;;;;;;;23.75;68.79;94016.75;4965126;28;20787;-83
2022/11/20 09:15:22;;;;;;;3.47;2.00;;;;;;;23.85;68.92;94052.66;4990973;28;20224;-84
2022/11/20 09:17:52;;;;;;;4.15;1.90;;;;;;;23.55;68.77;94011.91;4990964;28;20193;-81
2022/11/20 09:20:20;;;;;;;4.28;1.85;;;;;;;23.81;68.70;94068.00;4990626;28;20244;-90
2022/11/20 09:22:48;;;;;;;8.82;2.08;;;;;;;23.77;68.89;94048.63;4980679;28;20197;-84
2022/11/20 09:25:22;;;;;;;3.08;1.52;;;;;;;23.51;69.28;94002.97;5026875;23;20324;-86
2022/11/20 09:27:55;;;;;;;3.80;1.90;;;;;;;23.61;69.52;94010.97;5012555;28;20725;-82
2022/11/20 09:30:22;;;;;;;4.93;2.40;;;;;;;23.71;70.17;94031.28;5018874;28;20226;-86
2022/11/20 09:32:48;;;;;;;6.70;1.90;;;;;;;23.74;70.47;94023.75;5015404;28;20655;-82
2022/11/20 09:35:15;;;;;;;5.20;1.95;;;;;;;23.64;70.92;93988.84;5016647;28;20184;-85
2022/11/20 09:37:44;;;;;;;10.65;2.22;;;;;;;23.61;71.19;93976.25;5009709;28;20602;-84
2022/11/20 09:40:21;;;;;;;2.92;1.98;;;;;;;23.47;69.71;93950.44;5013437;28;20185;-84
2022/11/20 09:42:56;;;;;;;3.10;1.85;;;;;;;23.66;68.71;93978.97;5012467;28;20218;-86
2022/11/20 09:45:41;;;;;;;4.47;1.90;;;;;;;23.50;67.66;93957.03;5015877;28;20215;-86
2022/11/20 09:48:25;;;;;;;6.07;1.75;;;;;;;23.54;66.72;93969.38;5030765;28;20207;-84
2022/11/20 09:51:00;;;;;;;4.00;1.63;;;;;;;23.20;66.38;93928.59;5029416;28;20187;-85
2022/11/20 09:53:35;;;;;;;4.22;1.83;;;;;;;23.28;65.71;93943.88;5029888;28;20187;-81
2022/11/20 09:56:05;;;;;;;5.05;2.03;;;;;;;23.02;65.46;93911.31;5008819;28;20220;-84
2022/11/20 09:58:36;;;;;;;7.60;1.77;;;;;;;23.46;65.11;93977.56;5011503;28;20282;-83
2022/11/20 10:01:14;;;;;;;4.00;2.42;;;;;;;23.46;65.04;93967.13;5010869;28;20727;-84
2022/11/20 10:03:51;;;;;;;6.63;2.17;;;;;;;23.61;64.82;93971.81;5012947;28;20188;-83
2022/11/20 10:06:22;;;;;;;5.25;2.10;;;;;;;23.73;64.45;93971.78;5018109;28;20215;-88
2022/11/20 10:08:56;;;;;;;7.30;2.75;;;;;;;23.80;64.36;93961.97;5016662;28;20283;-82
2022/11/20 10:11:36;;;;;;;4.65;2.30;;;;;;;23.92;63.71;93967.91;5032498;28;20180;-82
2022/11/20 10:14:17;;;;;;;5.80;2.28;;;;;;;24.15;63.12;93987.06;5031687;28;20203;-83
2022/11/20 10:16:53;;;;;;;6.85;2.30;;;;;;;24.11;62.82;93952.00;5032273;28;20570;-85
2022/11/20 10:19:40;;;;;;;8.30;2.47;;;;;;;24.21;62.92;93975.66;5015628;28;20250;-85
2022/11/20 10:22:19;;;;;;;4.63;2.42;;;;;;;24.32;62.79;93981.81;5016720;28;20222;-87
2022/11/20 10:24:56;;;;;;;6.78;2.45;;;;;;;24.20;63.25;93980.09;5010647;28;20223;-83
2022/11/20 10:27:44;;;;;;;7.28;2.33;;;;;;;24.13;63.52;94004.78;5013038;28;20192;-83
2022/11/20 10:30:13;;;;;;;6.55;2.55;;;;;;;23.98;63.73;93993.09;5030757;28;20198;-81
2022/11/20 10:32:48;;;;;;;5.18;2.63;;;;;;;23.90;63.93;93984.84;5020507;28;20192;-83
2022/11/20 10:35:23;;;;;;;5.82;2.28;;;;;;;23.73;63.97;93959.50;5036671;28;20222;-83
2022/11/20 10:37:54;;;;;;;5.63;2.63;;;;;;;23.68;63.99;93984.75;5045510;28;20257;-83
2022/11/20 10:40:33;;;;;;;4.38;2.58;;;;;;;23.61;64.18;93984.06;5040225;28;20207;-81
2022/11/20 10:43:12;;;;;;;3.80;2.42;;;;;;;23.56;64.24;93991.81;5028001;28;20247;-82
2022/11/20 10:45:50;;;;;;;4.57;2.60;;;;;;;23.26;64.08;93951.13;5015412;28;20250;-83
2022/11/20 10:48:21;;;;;;;3.88;2.70;;;;;;;23.35;64.63;93975.81;5012107;28;20203;-80
2022/11/20 10:50:58;;;;;;;3.45;2.55;;;;;;;23.27;65.03;93984.81;5011936;28;20191;-82
2022/11/20 10:53:42;;;;;;;4.15;2.35;;;;;;;23.14;65.32;93972.03;5011519;28;20184;-79
2022/11/20 10:56:20;;;;;;;5.18;2.85;;;;;;;23.15;65.48;93984.06;5030679;28;20196;-82
2022/11/20 10:59:01;;;;;;;6.05;2.67;;;;;;;23.05;66.03;93981.25;5031043;28;20191;-84
2022/11/20 11:01:30;;;;;;;8.23;2.92;;;;;;;22.87;66.24;93997.03;5031825;28;20261;-82
2022/11/20 11:03:59;;;;;;;6.28;2.80;;;;;;;22.53;66.85;94002.88;5030332;28;20196;-84
2022/11/20 11:06:32;;;;;;;5.78;2.80;;;;;;;22.50;67.36;94054.69;5012959;28;20224;-81
2022/11/20 11:09:12;;;;;;;9.57;2.88;;;;;;;22.32;67.98;94045.13;5011739;28;20223;-80
2022/11/20 11:11:39;;;;;;;10.85;2.58;;;;;;;22.34;70.03;94050.13;5013541;28;20196;-81
2022/11/20 11:14:16;;;;;;;2.67;1.98;;;;;;;22.22;70.40;94031.88;5033682;28;20192;-79
2022/11/20 11:16:54;;;;;;;5.28;2.42;;;;;;;22.01;70.79;94014.97;5019570;28;20188;-83
2022/11/20 11:19:28;;;;;;;5.53;1.73;;;;;;;21.88;70.41;94026.38;5027739;28;20200;-81
2022/11/20 11:21:56;;;;;;;3.83;1.90;;;;;;;21.67;70.68;94030.28;5028076;28;20185;-81
2022/11/20 11:24:25;;;;;;;2.88;2.03;;;;;;;21.30;70.78;93991.34;5021435;28;20228;-82
2022/11/20 11:27:06;;;;;;;4.93;1.70;;;;;;;21.27;70.75;93994.38;5017791;28;20654;-83
2022/11/20 11:29:37;;;;;;;5.93;1.70;;;;;;;21.07;70.60;94001.66;5029268;28;20196;-84
2022/11/20 11:32:17;;;;;;;2.90;1.52;;;;;;;20.89;70.60;94007.66;5026147;28;20226;-83
2022/11/20 11:34:44;;;;;;;5.20;2.00;;;;;;;20.72;70.66;94002.25;5001490;28;20223;-82
2022/11/20 11:37:21;;;;;;;1.60;1.50;;;;;;;20.54;70.93;93974.47;5000417;28;20251;-85
2022/11/20 11:39:49;;;;;;;5.22;1.92;;;;;;;20.38;70.72;93967.25;5018916;28;20185;-81
2022/11/20 11:42:21;;;;;;;2.83;1.98;;;;;;;20.21;70.69;93977.41;5025829;28;20192;-80
2022/11/20 11:45:07;;;;;;;3.70;1.80;;;;;;;20.01;70.53;93976.78;5026367;28;20189;-81
2022/11/20 11:47:38;;;;;;;2.20;1.60;;;;;;;19.87;70.37;93967.53;5025460;28;20702;-81
2022/11/20 11:50:17;;;;;;;2.43;1.57;;;;;;;19.69;70.68;93976.03;5023430;28;20195;-82